createdAt,value
2019-04-21T00:01:18.494Z,34.67
2019-04-21T00:03:55.565Z,24.80
2019-04-21T00:06:43.467Z,19.40
2019-04-21T00:09:19.305Z,25.90
2019-04-21T00:11:46.819Z,21.43
2019-04-21T00:14:08.999Z,31.17
2019-04-21T00:16:34.724Z,24.10
2019-04-21T00:19:19.056Z,37.40
2019-04-21T00:21:50.645Z,32.07
2019-04-21T00:24:25.247Z,30.63
2019-04-21T00:27:05.195Z,26.80
2019-04-21T00:32:05.276Z,55.40
2019-04-21T00:34:21.623Z,25.47
2019-04-21T00:37:03.073Z,26.63
2019-04-21T00:42:16.857Z,35.40
2019-04-21T00:44:37.432Z,31.27
2019-04-21T00:47:13.932Z,32.20
2019-04-21T00:49:53.910Z,43.20
2019-04-21T00:55:29.858Z,32.53
2019-04-21T00:57:51.857Z,50.97
2019-04-21T01:00:20.366Z,51.70
2019-04-21T01:02:50.584Z,28.03
2019-04-21T01:05:22.537Z,39.80
2019-04-21T01:07:48.533Z,45.43
2019-04-21T01:10:14.859Z,38.30
2019-04-21T01:12:54.636Z,35.23
2019-04-21T01:15:30.605Z,34.50
2019-04-21T01:17:51.662Z,33.43
2019-04-21T01:20:16.087Z,32.27
2019-04-21T01:22:34.619Z,31.33
2019-04-21T01:25:13.396Z,39.17
2019-04-21T01:28:03.922Z,40.07
2019-04-21T01:30:29.631Z,27.97
2019-04-21T01:33:00.147Z,34.80
2019-04-21T01:35:25.755Z,57.63
2019-04-21T01:38:03.067Z,33.00
2019-04-21T01:40:34.855Z,37.23
2019-04-21T01:43:04.862Z,34.33
2019-04-21T01:45:32.117Z,34.57
2019-04-21T01:48:02.501Z,43.13
2019-04-21T01:50:34.456Z,34.33
2019-04-21T01:53:17.597Z,32.00
2019-04-21T01:56:14.589Z,30.07
2019-04-21T01:58:36.306Z,32.07
2019-04-21T02:01:15.615Z,55.83
2019-04-21T02:03:56.961Z,54.60
2019-04-21T02:06:21.306Z,68.03
2019-04-21T02:08:51.462Z,63.07
2019-04-21T02:11:24.736Z,54.80
2019-04-21T02:14:05.329Z,50.70
2019-04-21T02:16:31.060Z,41.00
2019-04-21T02:18:54.424Z,49.00
2019-04-21T02:21:22.077Z,55.30
2019-04-21T02:24:07.077Z,37.97
2019-04-21T02:26:33.582Z,39.40
2019-04-21T02:29:06.870Z,54.47
2019-04-21T02:34:13.133Z,36.30
2019-04-21T02:39:30.420Z,40.47
2019-04-21T02:41:51.228Z,50.47
2019-04-21T02:44:16.680Z,34.93
2019-04-21T02:46:48.510Z,35.43
2019-04-21T02:49:38.126Z,38.20
2019-04-21T02:57:01.324Z,42.80
2019-04-21T03:02:31.607Z,39.50
2019-04-21T03:05:21.058Z,49.40
2019-04-21T03:07:40.722Z,40.13
2019-04-21T03:12:37.674Z,42.37
2019-04-21T03:20:19.152Z,44.43
2019-04-21T03:23:13.388Z,47.67
2019-04-21T03:37:53.867Z,51.10
2019-04-21T03:40:23.976Z,52.00
2019-04-21T03:42:57.012Z,44.40
2019-04-21T03:45:36.932Z,39.63
2019-04-21T03:50:33.646Z,43.70
2019-04-21T03:53:02.873Z,50.27
2019-04-21T04:04:15.516Z,47.20
2019-04-21T04:07:05.985Z,45.43
2019-04-21T04:09:26.125Z,44.50
2019-04-21T04:11:51.369Z,39.23
2019-04-21T04:16:57.169Z,44.43
2019-04-21T04:19:18.600Z,44.03
2019-04-21T04:21:57.193Z,43.60
2019-04-21T04:24:34.242Z,44.77
2019-04-21T04:27:01.574Z,39.00
2019-04-21T04:31:53.175Z,44.60
2019-04-21T04:37:06.013Z,40.50
2019-04-21T04:39:48.641Z,44.90
2019-04-21T04:45:10.124Z,46.13
2019-04-21T04:49:51.648Z,51.10
2019-04-21T04:57:41.999Z,66.83
2019-04-21T05:02:37.585Z,72.03
2019-04-21T05:05:23.798Z,50.03
2019-04-21T05:07:57.682Z,43.50
2019-04-21T05:09:59.658Z,49.40
2019-04-21T05:12:29.226Z,55.13
2019-04-21T05:22:47.670Z,52.57
2019-04-21T05:25:02.452Z,69.43
2019-04-21T05:27:43.604Z,49.30
2019-04-21T05:33:03.928Z,56.80
2019-04-21T05:36:04.705Z,56.67
2019-04-21T05:38:57.026Z,50.50
2019-04-21T05:41:20.742Z,64.23
2019-04-21T05:43:57.459Z,52.43
2019-04-21T05:46:32.284Z,52.80
2019-04-21T05:49:02.705Z,65.17
2019-04-21T05:51:38.497Z,62.63
2019-04-21T05:54:15.814Z,53.10
2019-04-21T05:56:42.340Z,43.30
2019-04-21T05:59:12.095Z,51.67
2019-04-21T06:02:07.235Z,47.73
2019-04-21T06:04:34.681Z,42.07
2019-04-21T06:06:49.781Z,58.23
2019-04-21T06:09:19.115Z,50.53
2019-04-21T06:11:51.620Z,47.27
2019-04-21T06:14:25.351Z,46.57
2019-04-21T06:16:57.163Z,45.60
2019-04-21T06:19:30.685Z,63.20
2019-04-21T06:21:51.247Z,89.70
2019-04-21T06:24:26.997Z,46.27
2019-04-21T06:29:28.616Z,52.77
2019-04-21T06:32:22.005Z,47.20
2019-04-21T06:34:43.249Z,37.10
2019-04-21T06:37:32.143Z,50.47
2019-04-21T06:39:54.045Z,29.73
2019-04-21T06:42:09.047Z,40.47
2019-04-21T06:44:51.540Z,32.80
2019-04-21T06:47:17.632Z,37.40
2019-04-21T06:49:45.678Z,37.23
2019-04-21T06:52:23.429Z,42.37
2019-04-21T06:54:47.074Z,33.60
2019-04-21T06:57:17.027Z,35.83
2019-04-21T06:59:43.652Z,47.20
2019-04-21T07:07:25.610Z,46.00
2019-04-21T07:09:55.080Z,42.40
2019-04-21T07:12:23.227Z,49.03
2019-04-21T07:14:52.793Z,57.07
2019-04-21T07:20:02.415Z,44.00
2019-04-21T07:22:32.398Z,36.57
2019-04-21T07:25:03.091Z,50.37
2019-04-21T07:27:36.972Z,34.03
2019-04-21T07:30:04.713Z,37.57
2019-04-21T07:32:33.730Z,44.50
2019-04-21T07:37:39.157Z,42.77
2019-04-21T07:40:00.126Z,33.50
2019-04-21T07:42:35.405Z,33.93
2019-04-21T07:45:02.440Z,44.87
2019-04-21T07:47:51.799Z,32.33
2019-04-21T07:50:35.076Z,23.97
2019-04-21T07:53:19.413Z,30.67
2019-04-21T07:58:13.165Z,35.97
2019-04-21T08:00:54.664Z,24.83
2019-04-21T08:03:16.792Z,30.63
2019-04-21T08:05:45.772Z,35.37
2019-04-21T08:08:14.287Z,42.93
2019-04-21T08:10:47.559Z,27.77
2019-04-21T08:13:27.306Z,31.07
2019-04-21T08:15:50.991Z,29.40
2019-04-21T08:18:20.372Z,29.53
2019-04-21T08:20:48.050Z,29.23
2019-04-21T08:23:22.131Z,21.20
2019-04-21T08:26:03.262Z,21.13
2019-04-21T08:28:23.333Z,34.30
2019-04-21T08:30:47.806Z,35.30
2019-04-21T08:33:32.586Z,27.97
2019-04-21T08:38:27.671Z,45.73
2019-04-21T08:41:03.572Z,25.57
2019-04-21T08:43:37.292Z,28.13
2019-04-21T08:46:00.037Z,30.80
2019-04-21T08:48:33.426Z,26.27
2019-04-21T08:51:14.191Z,25.53
2019-04-21T08:53:35.734Z,23.43
2019-04-21T08:56:21.751Z,28.80
2019-04-21T09:02:09.190Z,38.40
2019-04-21T09:04:33.577Z,23.50
2019-04-21T09:07:29.960Z,29.70
2019-04-21T09:09:41.546Z,30.27
2019-04-21T09:12:10.374Z,25.23
2019-04-21T09:14:41.849Z,28.17
2019-04-21T09:17:08.252Z,27.13
2019-04-21T09:19:51.436Z,41.10
2019-04-21T09:22:10.787Z,26.00
2019-04-21T09:24:50.184Z,28.57
2019-04-21T09:27:15.344Z,24.90
2019-04-21T09:29:36.731Z,26.20
2019-04-21T09:32:01.431Z,27.93
2019-04-21T09:34:36.590Z,36.10
2019-04-21T09:37:15.173Z,39.60
2019-04-21T09:39:33.728Z,29.13
2019-04-21T09:42:06.212Z,23.73
2019-04-21T09:44:38.658Z,25.43
2019-04-21T09:47:08.435Z,25.03
2019-04-21T09:49:38.032Z,18.83
2019-04-21T09:52:15.093Z,26.30
2019-04-21T09:54:48.249Z,24.07
2019-04-21T09:57:24.294Z,25.13
2019-04-21T09:59:47.596Z,27.20
2019-04-21T10:02:18.149Z,20.90
2019-04-21T10:04:42.810Z,21.77
2019-04-21T10:07:25.778Z,16.07
2019-04-21T10:09:45.617Z,27.40
2019-04-21T10:12:16.147Z,26.60
2019-04-21T10:14:45.820Z,16.90
2019-04-21T10:17:37.475Z,17.17
2019-04-21T10:20:07.757Z,27.80
2019-04-21T10:22:37.260Z,26.60
2019-04-21T10:25:07.547Z,24.63
2019-04-21T10:27:37.036Z,15.47
2019-04-21T10:30:07.901Z,14.40
2019-04-21T10:32:38.501Z,34.63
2019-04-21T10:35:08.226Z,18.07
2019-04-21T10:37:50.813Z,20.53
2019-04-21T10:40:09.752Z,18.90
2019-04-21T10:42:40.310Z,20.13
2019-04-21T10:45:10.853Z,24.37
2019-04-21T10:47:41.030Z,22.60
2019-04-21T10:50:12.923Z,18.40
2019-04-21T10:53:11.018Z,22.10
2019-04-21T10:55:57.807Z,19.37
2019-04-21T10:58:14.193Z,19.43
2019-04-21T11:00:46.036Z,20.13
2019-04-21T11:03:33.377Z,24.03
2019-04-21T11:06:03.329Z,17.40
2019-04-21T11:08:37.677Z,21.43
2019-04-21T11:11:04.219Z,18.90
2019-04-21T11:13:34.760Z,15.40
2019-04-21T11:16:05.397Z,14.13
2019-04-21T11:18:35.918Z,14.80
2019-04-21T11:21:06.900Z,15.23
2019-04-21T11:23:37.502Z,16.00
2019-04-21T11:26:07.063Z,20.17
2019-04-21T11:28:36.823Z,16.50
2019-04-21T11:31:05.104Z,17.37
2019-04-21T11:33:35.584Z,14.13
2019-04-21T11:36:05.152Z,15.77
2019-04-21T11:39:00.834Z,27.77
2019-04-21T11:41:11.914Z,16.10
2019-04-21T11:43:41.699Z,22.17
2019-04-21T11:46:11.019Z,20.13
2019-04-21T11:48:40.300Z,15.20
2019-04-21T11:51:10.918Z,18.73
2019-04-21T11:53:41.096Z,20.97
2019-04-21T11:56:10.627Z,11.40
2019-04-21T11:58:39.912Z,40.47
2019-04-21T12:01:09.682Z,14.50
2019-04-21T12:03:39.935Z,13.20
2019-04-21T12:06:09.586Z,14.27
2019-04-21T12:08:42.855Z,11.63
2019-04-21T12:11:11.337Z,21.90
2019-04-21T12:13:40.897Z,15.37
2019-04-21T12:16:12.771Z,16.30
2019-04-21T12:18:42.968Z,15.03
2019-04-21T12:21:13.583Z,13.67
2019-04-21T12:23:43.226Z,18.17
2019-04-21T12:26:14.025Z,17.87
2019-04-21T12:28:43.932Z,13.20
2019-04-21T12:31:45.494Z,17.70
2019-04-21T12:34:16.169Z,15.00
2019-04-21T12:36:46.523Z,13.43
2019-04-21T12:39:16.872Z,10.97
2019-04-21T12:41:46.711Z,20.27
2019-04-21T12:44:16.089Z,13.10
2019-04-21T12:46:45.647Z,23.97
2019-04-21T12:49:16.068Z,12.30
2019-04-21T12:51:46.104Z,11.80
2019-04-21T12:54:15.836Z,34.57
2019-04-21T12:56:45.592Z,13.70
2019-04-21T12:59:15.107Z,23.00
2019-04-21T13:01:45.272Z,13.53
2019-04-21T13:04:15.596Z,16.37
2019-04-21T13:06:45.715Z,11.47
2019-04-21T13:09:19.794Z,15.10
2019-04-21T13:11:46.905Z,14.80
2019-04-21T13:14:17.732Z,13.40
2019-04-21T13:16:47.777Z,10.40
2019-04-21T13:19:17.579Z,12.13
2019-04-21T13:21:47.915Z,12.77
2019-04-21T13:24:17.845Z,13.50
2019-04-21T13:26:53.572Z,11.10
2019-04-21T13:29:18.620Z,15.98
2019-04-21T13:31:48.153Z,11.15
2019-04-21T13:34:18.046Z,15.90
2019-04-21T13:36:48.092Z,12.33
2019-04-21T13:40:02.277Z,13.28
2019-04-21T13:42:17.433Z,12.75
2019-04-21T13:44:41.315Z,11.97
2019-04-21T13:47:10.841Z,12.63
2019-04-21T13:49:41.515Z,37.63
2019-04-21T13:52:11.114Z,13.10
2019-04-21T13:54:40.481Z,11.95
2019-04-21T13:57:10.494Z,11.90
2019-04-21T13:59:40.409Z,12.65
2019-04-21T14:02:11.137Z,13.00
2019-04-21T14:04:41.199Z,11.97
2019-04-21T14:07:12.127Z,11.65
2019-04-21T14:09:49.971Z,14.65
2019-04-21T14:12:13.701Z,23.05
2019-04-21T14:14:44.130Z,12.33
2019-04-21T14:17:15.011Z,13.70
2019-04-21T14:19:45.509Z,12.93
2019-04-21T14:22:17.988Z,10.70
2019-04-21T14:24:47.993Z,11.70
2019-04-21T14:27:18.543Z,11.93
2019-04-21T14:29:49.123Z,14.43
2019-04-21T14:32:20.170Z,10.75
2019-04-21T14:34:50.702Z,10.63
2019-04-21T14:37:20.778Z,12.40
2019-04-21T14:39:58.960Z,10.80
2019-04-21T14:42:22.192Z,12.43
2019-04-21T14:44:51.717Z,11.97
2019-04-21T14:47:39.984Z,9.58
2019-04-21T14:50:28.181Z,11.85
2019-04-21T14:53:26.087Z,10.18
2019-04-21T14:55:55.542Z,11.25
2019-04-21T14:58:25.446Z,10.93
2019-04-21T15:01:06.463Z,10.15
2019-04-21T15:03:35.747Z,11.55
2019-04-21T15:06:05.578Z,12.55
2019-04-21T15:08:35.437Z,10.80
2019-04-21T15:11:05.296Z,10.58
2019-04-21T15:13:35.516Z,11.63
2019-04-21T15:16:06.781Z,12.28
2019-04-21T15:18:36.864Z,10.80
2019-04-21T15:21:07.753Z,13.75
2019-04-21T15:23:38.237Z,13.20
2019-04-21T15:26:08.268Z,11.50
2019-04-21T15:28:39.229Z,11.20
2019-04-21T15:31:12.757Z,12.50
2019-04-21T15:33:41.125Z,13.13
2019-04-21T15:36:11.254Z,13.72
2019-04-21T15:38:40.646Z,12.75
2019-04-21T15:41:10.833Z,12.07
2019-04-21T15:43:40.626Z,10.25
2019-04-21T15:46:10.956Z,13.50
2019-04-21T15:48:41.202Z,12.82
2019-04-21T15:51:11.034Z,10.75
2019-04-21T15:53:41.770Z,10.32
2019-04-21T15:56:22.700Z,12.25
2019-04-21T15:59:14.738Z,10.32
2019-04-21T16:01:52.439Z,11.15
2019-04-21T16:04:22.988Z,9.13
2019-04-21T16:06:53.538Z,10.45
2019-04-21T16:09:25.901Z,13.18
2019-04-21T16:11:53.900Z,16.55
2019-04-21T16:14:23.156Z,10.87
2019-04-21T16:16:53.669Z,12.30
2019-04-21T16:19:23.121Z,37.90
2019-04-21T16:21:52.823Z,11.53
2019-04-21T16:24:23.300Z,10.00
2019-04-21T16:26:53.041Z,9.67
2019-04-21T16:29:22.974Z,10.00
2019-04-21T16:31:53.281Z,10.77
2019-04-21T16:34:34.486Z,9.50
2019-04-21T16:36:53.996Z,8.07
2019-04-21T16:39:23.316Z,9.17
2019-04-21T16:41:54.068Z,9.10
2019-04-21T16:44:25.178Z,17.43
2019-04-21T16:46:55.701Z,9.90
2019-04-21T16:49:25.485Z,15.00
2019-04-21T16:52:25.914Z,9.40
2019-04-21T16:55:05.092Z,10.27
2019-04-21T16:57:59.896Z,9.33
2019-04-21T17:00:31.458Z,10.10
2019-04-21T17:02:54.721Z,8.60
2019-04-21T17:05:24.562Z,8.10
2019-04-21T17:07:55.530Z,8.50
2019-04-21T17:10:26.541Z,10.53
2019-04-21T17:12:56.500Z,11.53
2019-04-21T17:15:44.782Z,11.10
2019-04-21T17:18:13.034Z,11.40
2019-04-21T17:20:39.902Z,10.00
2019-04-21T17:23:01.669Z,14.83
2019-04-21T17:25:32.095Z,11.00
2019-04-21T17:28:01.777Z,11.17
2019-04-21T17:30:30.983Z,12.90
2019-04-21T17:33:03.660Z,23.00
2019-04-21T17:35:33.254Z,12.30
2019-04-21T17:38:03.895Z,38.47
2019-04-21T17:40:34.138Z,17.40
2019-04-21T17:43:07.613Z,14.73
2019-04-21T17:45:35.207Z,10.67
2019-04-21T17:48:10.180Z,11.33
2019-04-21T17:50:59.160Z,14.10
2019-04-21T17:53:38.505Z,9.83
2019-04-21T17:56:23.491Z,10.20
2019-04-21T17:58:56.728Z,12.80
2019-04-21T18:01:35.303Z,14.57
2019-04-21T18:04:05.267Z,11.30
2019-04-21T18:06:38.042Z,15.43
2019-04-21T18:09:15.534Z,14.93
2019-04-21T18:11:42.957Z,12.03
2019-04-21T18:13:53.384Z,13.57
2019-04-21T18:16:31.539Z,15.73
2019-04-21T18:18:55.005Z,11.37
2019-04-21T18:21:34.605Z,41.80
2019-04-21T18:24:14.403Z,9.90
2019-04-21T18:26:44.463Z,13.37
2019-04-21T18:29:08.004Z,12.97
2019-04-21T18:31:44.793Z,21.07
2019-04-21T18:34:17.741Z,9.70
2019-04-21T18:36:52.120Z,33.40
2019-04-21T18:39:38.219Z,11.77
2019-04-21T18:42:37.536Z,15.50
2019-04-21T18:48:02.312Z,26.13
2019-04-21T18:50:46.016Z,18.67
2019-04-21T18:53:24.533Z,11.70
2019-04-21T18:55:48.181Z,13.30
2019-04-21T18:58:15.719Z,24.67
2019-04-21T19:00:46.004Z,22.27
2019-04-21T19:03:25.331Z,25.27
2019-04-21T19:05:53.981Z,25.93
2019-04-21T19:08:40.562Z,32.53
2019-04-21T19:11:14.843Z,21.47
2019-04-21T19:14:15.715Z,19.33
2019-04-21T19:16:33.186Z,25.70
2019-04-21T19:19:23.698Z,34.20
2019-04-21T19:21:31.472Z,44.87
2019-04-21T19:24:18.193Z,28.57
2019-04-21T19:26:46.585Z,32.23
2019-04-21T19:29:19.910Z,33.13
2019-04-21T19:31:48.254Z,26.87
2019-04-21T19:34:02.115Z,27.00
2019-04-21T19:36:25.611Z,23.90
2019-04-21T19:39:06.284Z,29.83
2019-04-21T19:41:41.141Z,30.07
2019-04-21T19:44:13.645Z,21.83
2019-04-21T19:46:43.511Z,32.67
2019-04-21T19:49:21.600Z,21.40
2019-04-21T19:51:43.257Z,26.43
2019-04-21T19:54:09.900Z,29.67
2019-04-21T19:56:35.219Z,27.20
2019-04-21T19:59:03.565Z,29.43
2019-04-21T20:01:32.878Z,51.97
2019-04-21T20:04:02.914Z,23.80
2019-04-21T20:06:47.514Z,33.13
2019-04-21T20:09:23.434Z,36.30
2019-04-21T20:11:50.074Z,34.27
2019-04-21T20:16:53.154Z,28.83
2019-04-21T20:19:15.537Z,49.50
2019-04-21T20:21:45.126Z,25.50
2019-04-21T20:24:18.618Z,35.10
2019-04-21T20:26:56.869Z,31.00
2019-04-21T20:29:40.622Z,41.33
2019-04-21T20:32:10.553Z,43.80
2019-04-21T20:34:41.514Z,43.03
2019-04-21T20:37:07.711Z,42.73
2019-04-21T20:39:25.350Z,46.13
2019-04-21T20:42:11.301Z,50.47
2019-04-21T20:44:42.292Z,51.53
2019-04-21T20:47:07.856Z,43.43
2019-04-21T20:49:35.067Z,42.50
2019-04-21T20:52:17.281Z,48.23
2019-04-21T20:54:45.437Z,44.50
2019-04-21T20:57:18.304Z,47.17
2019-04-21T20:59:43.857Z,70.67
2019-04-21T21:02:17.655Z,64.03
2019-04-21T21:04:43.469Z,51.30
2019-04-21T21:07:34.442Z,57.83
2019-04-21T21:09:55.862Z,57.03
2019-04-21T21:12:34.595Z,52.03
2019-04-21T21:14:50.244Z,52.83
2019-04-21T21:17:41.406Z,53.67
2019-04-21T21:19:59.695Z,65.20
2019-04-21T21:22:22.791Z,56.83
2019-04-21T21:24:55.816Z,64.67
2019-04-21T21:27:25.192Z,58.43
2019-04-21T21:30:04.792Z,68.77
2019-04-21T21:32:33.837Z,62.30
2019-04-21T21:35:03.485Z,51.87
2019-04-21T21:37:38.093Z,65.30
2019-04-21T21:40:21.879Z,75.27
2019-04-21T21:42:27.540Z,67.77
2019-04-21T21:45:00.771Z,57.07
2019-04-21T21:47:36.702Z,71.20
2019-04-21T21:50:06.460Z,58.77
2019-04-21T21:52:42.596Z,62.53
2019-04-21T21:54:54.308Z,61.10
2019-04-21T21:57:23.948Z,77.37
2019-04-21T21:59:59.044Z,64.33
2019-04-21T22:02:33.507Z,72.00
2019-04-21T22:05:06.664Z,65.20
2019-04-21T22:07:29.644Z,63.03
2019-04-21T22:09:58.021Z,64.43
2019-04-21T22:12:32.772Z,57.70
2019-04-21T22:15:04.557Z,72.40
2019-04-21T22:17:44.589Z,53.83
2019-04-21T22:20:19.156Z,65.40
2019-04-21T22:22:42.640Z,59.23
2019-04-21T22:25:10.020Z,60.03
2019-04-21T22:27:34.946Z,65.57
2019-04-21T22:30:07.814Z,64.93
2019-04-21T22:32:36.912Z,64.33
2019-04-21T22:35:11.217Z,63.87
2019-04-21T22:37:51.146Z,62.53
2019-04-21T22:40:20.287Z,61.57
2019-04-21T22:42:51.225Z,75.00
2019-04-21T22:45:15.467Z,66.83
2019-04-21T22:47:46.512Z,59.70
2019-04-21T22:50:26.843Z,84.40
2019-04-21T22:52:59.469Z,57.97
2019-04-21T22:55:30.876Z,68.23
2019-04-21T22:57:59.865Z,65.80
2019-04-21T23:00:37.128Z,72.57
2019-04-21T23:03:09.405Z,79.33
2019-04-21T23:05:36.314Z,77.10
2019-04-21T23:08:06.556Z,78.97
2019-04-21T23:10:34.942Z,70.73
2019-04-21T23:13:09.170Z,72.80
2019-04-21T23:15:43.489Z,59.07
2019-04-21T23:18:23.475Z,73.13
2019-04-21T23:20:55.150Z,65.83
2019-04-21T23:23:34.482Z,89.27
2019-04-21T23:25:53.146Z,90.33
2019-04-21T23:28:34.453Z,76.30
2019-04-21T23:31:05.605Z,67.00
2019-04-21T23:33:15.829Z,55.03
2019-04-21T23:35:47.400Z,75.30
2019-04-21T23:38:16.497Z,74.93
2019-04-21T23:40:52.965Z,89.13
2019-04-21T23:43:21.400Z,58.77
2019-04-21T23:45:48.717Z,61.60
2019-04-21T23:48:34.887Z,74.93
2019-04-21T23:50:56.619Z,55.63
2019-04-21T23:53:21.532Z,83.40
2019-04-21T23:55:51.217Z,71.10
2019-04-21T23:58:25.462Z,64.97
